Latest Weather Observations for Larapuna (Eddystone Point)

IDT60801

Issued at 8:02 am EST Sunday 28 August 2016 (issued every 30 minutes, with the page automatically refreshed every 10 minutes)

About weather observations | Map of weather stations | Latest weather observations for TAS | Other Formats
Station Details ID: 092045 Name: LARAPUNA (EDDYSTONE POINT) Lat: -40.99 Lon: 148.35 Height: 19.7 m
Data from the previous 72 hours. | See also: Recent months at Larapuna (Eddystone Point)
Date/Time
EST
Temp
°C
App
Temp
°C
Dew
Point
°C
Rel
Hum
%
Delta-T
°C
Wind Press
QNH
hPa
Press
MSL
hPa
Rain since
9am
mm
Dir  Spd
km/h
Gust
km/h
Spd
kts
Gust
kts
28/08:00am 8.6 2.5 4.8 77 1.7 SSW 26 39 14 21 1014.8 1014.8 1.6
28/07:30am 8.2 2.6 5.3 82 1.3 S 24 28 13 15 1014.4 1014.4 1.6
28/07:00am 8.1 3.5 5.7 85 1.1 S 19 24 10 13 1013.5 1013.5 1.6
28/06:30am 8.4 2.9 6.0 85 1.1 SW 24 43 13 23 1012.6 1012.6 1.4
28/06:00am 9.5 5.1 7.3 86 1.0 WNW 20 32 11 17 1011.4 1011.4 1.4
28/05:30am 9.9 5.2 7.7 86 1.1 W 22 33 12 18 1011.2 1011.2 1.4
28/05:04am 9.9 3.7 7.8 87 1.0 W 30 48 16 26 1010.3 1010.3 1.4
28/05:00am 10.0 3.4 7.9 87 1.0 W 32 48 17 26 1010.1 1010.1 1.4
28/04:35am 10.1 2.3 8.4 89 0.8 WNW 39 57 21 31 1008.7 1008.7 1.4
28/04:30am 10.1 1.6 8.4 89 0.8 WNW 43 57 23 31 1008.3 1008.3 1.4
28/04:01am 10.0 1.4 8.3 89 0.8 WNW 43 61 23 33 1008.5 1008.5 1.4
28/04:00am 10.0 1.3 8.3 89 0.8 WNW 44 61 24 33 1008.5 1008.5 1.4
28/03:30am 10.3 1.2 8.4 88 0.9 WNW 46 67 25 36 1008.4 1008.4 1.2
28/03:00am 10.7 1.3 8.8 88 0.9 NW 48 69 26 37 1008.4 1008.4 1.2
28/02:30am 10.9 0.4 8.7 86 1.1 NW 54 72 29 39 1008.3 1008.3 0.6
28/02:00am 11.2 -0.4 8.1 81 1.5 NW 59 93 32 50 1007.9 1007.9 0.2
28/01:30am 12.1 0.5 6.8 70 2.5 NW 57 85 31 46 1008.0 1008.0 0.2
28/01:00am 11.8 1.5 6.7 71 2.4 NW 50 78 27 42 1008.8 1008.8 0.2
28/12:30am 12.0 2.5 6.7 70 2.5 NW 46 65 25 35 1009.5 1009.5 0.2
28/12:00am 12.0 2.4 6.3 68 2.7 NW 46 65 25 35 1009.6 1009.6 0.2
 
Date/Time
EST
Temp
°C
App
Temp
°C
Dew
Point
°C
Rel
Hum
%
Delta-T
°C
Wind Press
QNH
hPa
Press
MSL
hPa
Rain since
9am
mm
Dir  Spd
km/h
Gust
km/h
Spd
kts
Gust
kts
27/11:30pm 11.9 1.4 5.8 66 2.8 NW 50 69 27 37 1010.0 1010.0 0.2
27/11:05pm 12.0 2.4 6.3 68 2.7 NW 46 65 25 35 1010.5 1010.5 0.2
27/11:00pm 11.9 2.3 6.2 68 2.7 NW 46 63 25 34 1010.7 1010.7 0.2
27/10:37pm 12.0 3.7 6.1 67 2.8 NW 39 57 21 31 1011.3 1011.3 0.2
27/10:30pm 11.9 4.0 6.2 68 2.7 NW 37 54 20 29 1011.7 1011.7 0.2
27/10:16pm 11.8 4.0 6.5 70 2.5 NW 37 56 20 30 1011.9 1011.9 0.2
27/10:00pm 11.5 4.4 6.4 71 2.4 NW 33 46 18 25 1012.3 1012.3 0.0
27/09:47pm 11.5 4.4 6.6 72 2.3 NW 33 52 18 28 1012.4 1012.4 0.0
27/09:30pm 11.6 4.2 6.9 73 2.2 NW 35 52 19 28 1012.6 1012.6 0.0
27/09:13pm 11.6 3.9 7.1 74 2.2 NW 37 56 20 30 1012.9 1012.9 0.0
27/09:00pm 11.5 4.2 7.2 75 2.1 NW 35 50 19 27 1012.9 1012.9 0.0
27/08:30pm 11.5 4.9 7.8 78 1.8 NW 32 46 17 25 1013.0 1013.0 0.0
27/08:00pm 11.3 4.1 7.6 78 1.8 NW 35 48 19 26 1013.2 1013.2 0.0
27/07:30pm 11.2 4.1 8.2 82 1.5 NW 35 48 19 26 1013.0 1013.0 0.0
27/07:01pm 11.5 4.4 8.0 79 1.7 NW 35 54 19 29 1013.1 1013.1 0.0
27/07:00pm 11.5 4.0 8.0 79 1.7 NW 37 54 20 29 1013.1 1013.1 0.0
27/06:30pm 11.1 3.7 8.3 83 1.4 NW 37 50 20 27 1013.1 1013.1 0.0
27/06:00pm 11.4 4.6 7.9 79 1.7 NW 33 44 18 24 1013.1 1013.1 0.0
27/05:30pm 11.5 4.8 7.2 75 2.1 NW 32 50 17 27 1012.9 1012.9 0.0
27/05:11pm 11.5 3.8 7.0 74 2.1 NW 37 56 20 30 1012.6 1012.6 0.0
27/05:00pm 11.4 3.3 7.1 75 2.1 NW 39 54 21 29 1012.4 1012.4 0.0
27/04:30pm 11.8 2.7 6.9 72 2.3 WNW 44 78 24 42 1012.4 1012.4 0.0
27/04:00pm 12.5 2.4 7.6 72 2.4 WNW 50 74 27 40 1011.7 1011.7 0.0
27/03:30pm 12.4 3.1 7.7 73 2.3 WNW 46 65 25 35 1011.9 1011.9 0.0
27/03:00pm 11.9 3.7 8.0 77 1.9 WNW 41 63 22 34 1012.2 1012.2 0.0
27/02:47pm 12.7 4.8 8.0 73 2.3 NW 39 59 21 32 1012.4 1012.4 0.0
27/02:30pm 13.1 4.3 7.3 68 2.8 WNW 43 59 23 32 1012.5 1012.5 0.0
27/02:00pm 14.2 5.1 6.8 61 3.6 WNW 44 72 24 39 1012.4 1012.4 0.0
27/01:30pm 13.7 5.6 7.2 65 3.2 WNW 39 65 21 35 1012.6 1012.6 0.0
27/01:00pm 14.3 5.5 7.1 62 3.5 WNW 43 61 23 33 1012.6 1012.6 0.0
27/12:34pm 13.9 7.0 7.2 64 3.3 WNW 33 54 18 29 1013.1 1013.1 0.0
27/12:30pm 13.6 6.8 7.8 68 2.9 WNW 33 50 18 27 1013.3 1013.3 0.0
27/12:00pm 14.2 6.2 7.3 63 3.4 WNW 39 69 21 37 1013.8 1013.8 0.0
27/11:30am 13.7 7.5 7.9 68 2.9 WNW 30 57 16 31 1014.3 1014.3 0.0
27/11:00am 12.6 4.5 6.9 68 2.7 WNW 39 61 21 33 1014.5 1014.5 0.0
27/10:42am 12.8 4.8 5.9 63 3.3 WNW 37 65 20 35 1014.3 1014.3 0.0
27/10:30am 13.3 5.9 6.9 65 3.1 WNW 35 50 19 27 1014.6 1014.6 0.0
27/10:09am 12.6 6.7 7.3 70 2.6 WNW 28 46 15 25 1014.9 1014.9 0.0
27/10:00am 12.1 5.7 7.0 71 2.4 WNW 30 44 16 24 1015.2 1015.2 0.0
27/09:35am 12.4 6.4 6.9 69 2.6 WNW 28 48 15 26 1015.2 1015.2 0.0
27/09:30am 12.7 7.6 7.8 72 2.4 WNW 24 41 13 22 1015.2 1015.2 0.0
27/09:00am 11.9 6.8 7.6 75 2.1 WNW 24 35 13 19 1015.4 1015.4 0.0
27/08:32am 11.1 5.1 7.2 77 1.9 WNW 28 46 15 25 1015.2 1015.2 0.0
27/08:30am 11.0 5.4 7.1 77 1.9 WNW 26 46 14 25 1015.3 1015.3 0.0
27/08:00am 10.5 3.2 7.0 79 1.7 WNW 35 54 19 29 1015.0 1015.0 0.0
27/07:46am 10.1 4.1 7.2 82 1.4 WNW 28 46 15 25 1014.8 1014.8 0.0
27/07:30am 9.5 3.8 6.9 84 1.2 WNW 26 41 14 22 1015.0 1015.0 0.0
27/07:00am 8.8 3.5 6.6 86 1.0 NW 24 35 13 19 1014.6 1014.6 0.0
27/06:30am 9.0 2.1 6.6 85 1.1 WNW 32 46 17 25 1014.5 1014.5 0.0
27/06:00am 9.0 2.9 6.4 84 1.2 NW 28 43 15 23 1014.3 1014.3 0.0
27/05:30am 9.4 1.1 6.3 81 1.4 WNW 39 57 21 31 1014.2 1014.2 0.0
27/05:09am 9.3 2.7 5.9 79 1.6 WNW 30 48 16 26 1014.2 1014.2 0.0
27/05:00am 9.3 2.1 6.0 80 1.5 WNW 33 44 18 24 1014.1 1014.1 0.0
27/04:30am 9.2 2.0 6.1 81 1.4 WNW 33 52 18 28 1014.0 1014.0 0.0
27/04:00am 9.2 2.2 6.1 81 1.4 WNW 32 52 17 28 1013.5 1013.5 0.0
27/03:43am 9.3 2.7 6.2 81 1.4 WNW 30 48 16 26 1013.6 1013.6 0.0
27/03:30am 9.3 2.7 6.2 81 1.4 WNW 30 46 16 25 1013.6 1013.6 0.0
27/03:29am 9.3 3.1 6.2 81 1.4 WNW 28 46 15 25 1013.6 1013.6 0.0
27/03:00am 9.2 3.3 5.9 80 1.5 WNW 26 35 14 19 1013.9 1013.9 0.0
27/02:41am 9.3 2.3 6.0 80 1.5 WNW 32 50 17 27 1014.0 1014.0 0.0
27/02:30am 9.2 2.2 5.9 80 1.5 WNW 32 44 17 24 1014.0 1014.0 0.0
27/02:00am 9.1 2.1 6.2 82 1.3 WNW 32 50 17 27 1014.3 1014.3 0.0
27/01:56am 9.1 2.1 6.0 81 1.4 WNW 32 50 17 27 1014.3 1014.3 0.0
27/01:30am 8.9 4.4 6.0 82 1.3 WNW 19 35 10 19 1014.7 1014.7 0.0
27/01:00am 8.9 4.7 5.5 79 1.5 WNW 17 28 9 15 1014.9 1014.9 0.0
27/12:30am 9.1 3.1 5.5 78 1.6 WNW 26 44 14 24 1015.0 1015.0 0.0
27/12:00am 8.9 2.9 5.3 78 1.6 W 26 35 14 19 1015.2 1015.2 0.0
 
Date/Time
EST
Temp
°C
App
Temp
°C
Dew
Point
°C
Rel
Hum
%
Delta-T
°C
Wind Press
QNH
hPa
Press
MSL
hPa
Rain since
9am
mm
Dir  Spd
km/h
Gust
km/h
Spd
kts
Gust
kts
26/11:30pm 9.3 3.0 5.5 77 1.7 WNW 28 39 15 21 1015.1 1015.1 0.0
26/11:00pm 9.3 3.8 5.7 78 1.6 WNW 24 39 13 21 1015.1 1015.1 0.0
26/10:30pm 9.2 3.3 5.8 79 1.6 WNW 26 37 14 20 1015.3 1015.3 0.0
26/10:00pm 9.0 3.1 5.9 81 1.4 WNW 26 35 14 19 1015.2 1015.2 0.0
26/09:30pm 9.6 3.1 6.3 80 1.5 WNW 30 41 16 22 1015.3 1015.3 0.0
26/09:00pm 9.6 2.6 6.1 79 1.6 W 32 44 17 24 1015.1 1015.1 0.0
26/08:30pm 9.5 2.9 6.0 79 1.6 W 30 43 16 23 1014.7 1014.7 0.0
26/08:00pm 9.4 3.1 5.8 78 1.6 W 28 39 15 21 1014.7 1014.7 0.0
26/07:30pm 9.7 4.2 5.7 76 1.8 WNW 24 37 13 20 1014.6 1014.6 0.0
26/07:00pm 9.9 3.2 5.7 75 1.9 WNW 30 41 16 22 1014.4 1014.4 0.0
26/06:30pm 10.1 3.4 5.5 73 2.1 W 30 43 16 23 1014.3 1014.3 0.0
26/06:13pm 10.3 3.2 5.7 73 2.1 W 32 50 17 27 1014.1 1014.1 0.0
26/06:00pm 10.4 4.1 5.8 73 2.1 W 28 39 15 21 1013.9 1013.9 0.0
26/05:30pm 10.8 4.5 5.6 70 2.4 WNW 28 43 15 23 1013.8 1013.8 0.0
26/05:00pm 11.7 4.5 6.0 68 2.7 WNW 33 48 18 26 1013.8 1013.8 0.0
26/04:46pm 11.9 4.9 6.0 67 2.8 WNW 32 52 17 28 1013.5 1013.5 0.0
26/04:30pm 12.2 4.6 6.0 66 2.9 WNW 35 48 19 26 1013.4 1013.4 0.0
26/04:00pm 12.7 5.2 6.1 64 3.1 WNW 35 56 19 30 1013.4 1013.4 0.0
26/03:53pm 12.5 4.8 5.4 62 3.3 WNW 35 56 19 30 1013.4 1013.4 0.0
26/03:30pm 12.8 4.4 5.5 61 3.4 WNW 39 52 21 28 1013.4 1013.4 0.0
26/03:10pm 13.1 5.4 5.3 59 3.6 WNW 35 54 19 29 1013.2 1013.2 0.0
26/03:00pm 13.1 5.8 5.5 60 3.6 WNW 33 48 18 26 1013.1 1013.1 0.0
26/02:33pm 13.2 5.8 5.1 58 3.8 WNW 33 54 18 29 1013.1 1013.1 0.0
26/02:30pm 13.5 6.3 5.7 59 3.7 WNW 33 50 18 27 1013.1 1013.1 0.0
26/02:23pm 13.6 6.5 5.3 57 3.9 WNW 32 50 17 27 1013.3 1013.3 0.0
26/02:00pm 13.2 5.3 4.6 56 4.0 WNW 35 48 19 26 1013.5 1013.5 0.0
26/01:30pm 13.9 6.6 4.5 53 4.3 WNW 32 44 17 24 1013.5 1013.5 0.0
26/01:00pm 12.8 6.3 4.5 57 3.8 WNW 28 44 15 24 1013.7 1013.7 0.0
26/12:30pm 13.6 8.1 3.9 52 4.4 WNW 22 32 12 17 1014.1 1014.1 0.0
26/12:00pm 13.4 6.4 2.0 46 5.0 W 28 43 15 23 1014.6 1014.6 0.0
26/11:30am 13.1 6.3 2.9 50 4.5 W 28 43 15 23 1014.9 1014.9 0.0
26/11:00am 12.5 5.9 4.0 56 3.8 WNW 28 39 15 21 1015.2 1015.2 0.0
26/10:30am 11.2 4.8 3.3 58 3.5 WNW 26 35 14 19 1015.3 1015.3 0.0
26/10:00am 10.8 5.1 3.1 59 3.3 W 22 32 12 17 1015.6 1015.6 0.0
26/09:30am 9.0 2.8 2.1 62 2.9 W 24 35 13 19 1015.8 1015.8 0.0
26/09:00am 8.7 2.9 2.1 63 2.7 W 22 33 12 18 1015.8 1015.8 0.0
26/08:30am 7.7 2.6 3.0 72 2.0 WNW 19 28 10 15 1015.7 1015.7 0.0
26/08:00am 6.0 0.8 3.3 83 1.1 W 20 28 11 15 1015.4 1015.4 0.0
26/07:30am 4.8 -0.3 2.8 87 0.8 W 19 24 10 13 1015.2 1015.2 0.0
26/07:00am 3.9 -1.5 2.4 90 0.6 W 20 26 11 14 1014.9 1014.9 0.0
26/06:30am 3.2 -1.7 1.7 90 0.6 W 17 22 9 12 1014.7 1014.7 0.0
26/06:00am 3.4 -1.5 1.9 90 0.6 W 17 20 9 11 1014.7 1014.7 0.0
26/05:30am 3.8 -1.4 2.2 89 0.6 WNW 19 20 10 11 1014.5 1014.5 0.0
26/05:00am 4.3 -0.5 2.7 89 0.6 WNW 17 20 9 11 1014.3 1014.3 0.0
26/04:30am 4.4 -0.1 2.4 87 0.8 W 15 19 8 10 1013.8 1013.8 0.0
26/04:00am 5.3 1.7 2.8 84 1.0 WNW 11 15 6 8 1013.9 1013.9 0.0
26/03:30am 5.5 1.2 3.3 86 0.9 WSW 15 17 8 9 1013.8 1013.8 0.0
26/03:00am 5.6 2.5 3.6 87 0.8 SW 9 11 5 6 1013.8 1013.8 0.0
26/02:30am 6.0 2.9 3.8 86 0.9 WSW 9 13 5 7 1013.9 1013.9 0.0
26/02:00am 6.1 1.9 3.8 85 1.0 WSW 15 17 8 9 1014.0 1014.0 0.0
26/01:30am 7.0 4.5 5.0 87 0.9 SW 7 9 4 5 1014.0 1014.0 0.0
26/01:00am 6.2 2.7 3.5 83 1.1 SW 11 13 6 7 1014.0 1014.0 0.0
26/12:30am 6.6 3.9 3.8 82 1.2 WSW 7 9 4 5 1013.9 1013.9 0.0
26/12:00am 6.3 3.2 3.8 84 1.1 W 9 11 5 6 1014.0 1014.0 0.0
 
Date/Time
EST
Temp
°C
App
Temp
°C
Dew
Point
°C
Rel
Hum
%
Delta-T
°C
Wind Press
QNH
hPa
Press
MSL
hPa
Rain since
9am
mm
Dir  Spd
km/h
Gust
km/h
Spd
kts
Gust
kts
25/11:30pm 6.4 2.9 3.6 82 1.2 WSW 11 15 6 8 1014.0 1014.0 0.0
25/11:00pm 6.7 3.3 4.2 84 1.1 SW 11 13 6 7 1014.3 1014.3 0.0
25/10:30pm 6.9 1.8 4.2 83 1.2 NW 20 20 11 11 1014.3 1014.3 0.0
25/10:00pm 7.8 3.8 4.9 82 1.3 NW 15 17 8 9 1014.1 1014.1 0.0
25/09:30pm 7.8 3.8 4.7 81 1.4 NW 15 15 8 8 1014.4 1014.4 0.0
25/09:00pm 8.4 4.8 5.2 80 1.4 NW 13 15 7 8 1014.4 1014.4 0.0
25/08:30pm 8.9 5.3 4.9 76 1.8 NNW 13 17 7 9 1014.1 1014.1 0.0
25/08:00pm 9.1 5.9 5.1 76 1.8 N 11 15 6 8 1014.0 1014.0 0.0
25/07:30pm 9.1 6.6 4.7 74 2.0 NNW 7 7 4 4 1014.0 1014.0 0.0
25/07:00pm 9.0 6.1 4.6 74 1.9 NNW 9 13 5 7 1013.5 1013.5 0.0
25/06:30pm 8.9 5.1 3.9 71 2.2 NW 13 15 7 8 1013.1 1013.1 0.0
25/06:00pm 10.1 5.4 3.4 63 2.9 NNW 17 20 9 11 1012.9 1012.9 0.0
25/05:30pm 10.2 5.7 4.4 67 2.6 NNW 17 20 9 11 1012.7 1012.7 0.0
25/05:00pm 10.6 5.5 3.9 63 3.0 NNW 20 24 11 13 1012.4 1012.4 0.0
25/04:30pm 11.8 7.7 4.1 59 3.5 NNW 15 19 8 10 1012.2 1012.2 0.0
25/04:00pm 12.1 9.4 3.9 57 3.7 W 7 15 4 8 1011.9 1011.9 0.0
25/03:30pm 11.7 8.3 4.0 59 3.4 S 11 15 6 8 1011.8 1011.8 0.0
25/03:00pm 12.9 8.8 4.6 57 3.8 SSE 15 19 8 10 1011.4 1011.4 0.0
25/02:30pm 12.6 6.9 5.1 60 3.5 SSE 24 30 13 16 1011.2 1011.2 0.0
25/02:00pm 13.2 7.1 4.9 57 3.8 SE 26 30 14 16 1010.8 1010.8 0.0
25/01:30pm 13.2 7.4 4.4 55 4.0 SSE 24 28 13 15 1010.8 1010.8 0.0
25/01:00pm 13.2 7.7 4.1 54 4.1 SE 22 28 12 15 1010.9 1010.9 0.0
25/12:30pm 13.3 8.7 3.7 52 4.3 SE 17 20 9 11 1010.9 1010.9 0.0
25/12:00pm 12.9 8.3 3.6 53 4.2 SSE 17 20 9 11 1011.1 1011.1 0.0
25/11:30am 13.4 8.4 3.5 51 4.4 S 19 22 10 12 1011.1 1011.1 0.0
25/11:00am 12.8 7.1 2.9 51 4.4 S 22 28 12 15 1011.2 1011.2 0.0
25/10:30am 12.7 7.4 3.1 52 4.2 S 20 24 11 13 1011.0 1011.0 0.0
25/10:00am 11.8 5.8 3.1 55 3.8 SSW 24 28 13 15 1010.8 1010.8 0.0
25/09:30am 11.2 4.7 2.8 56 3.6 SSW 26 30 14 16 1010.5 1010.5 0.0
25/09:00am 10.7 4.6 3.0 59 3.3 SSW 24 28 13 15 1010.5 1010.5 0.0
25/08:30am 9.3 3.6 2.6 63 2.8 SSW 22 28 12 15 1010.5 1010.5 0.0

Other Formats:

Comma delimited format used in spreadsheet applications
http://www.bom.gov.au/fwo/IDT60801/IDT60801.94983.axf

JavaScript Object Notation format (JSON) in row-major order
http://www.bom.gov.au/fwo/IDT60801/IDT60801.94983.json